sensor_id;sensor_type;location;lat;lon;timestamp;temperature;humidity
67529;DHT22;54366;51.980;5.856;2023-12-22T00:01:42;7.70;83.70
67529;DHT22;54366;51.980;5.856;2023-12-22T00:04:08;7.70;83.60
67529;DHT22;54366;51.980;5.856;2023-12-22T00:06:35;7.70;83.70
67529;DHT22;54366;51.980;5.856;2023-12-22T00:09:01;7.70;83.60
67529;DHT22;54366;51.980;5.856;2023-12-22T00:11:27;7.70;83.60
67529;DHT22;54366;51.980;5.856;2023-12-22T00:13:53;7.70;83.60
67529;DHT22;54366;51.980;5.856;2023-12-22T00:16:20;7.80;83.60
67529;DHT22;54366;51.980;5.856;2023-12-22T00:18:46;7.80;83.60
67529;DHT22;54366;51.980;5.856;2023-12-22T00:21:12;7.80;83.60
67529;DHT22;54366;51.980;5.856;2023-12-22T00:23:38;7.80;83.70
67529;DHT22;54366;51.980;5.856;2023-12-22T00:26:08;7.80;84.00
67529;DHT22;54366;51.980;5.856;2023-12-22T00:28:34;7.80;84.10
67529;DHT22;54366;51.980;5.856;2023-12-22T00:31:00;7.70;84.30
67529;DHT22;54366;51.980;5.856;2023-12-22T00:33:27;7.70;84.80
67529;DHT22;54366;51.980;5.856;2023-12-22T00:35:53;7.60;85.30
67529;DHT22;54366;51.980;5.856;2023-12-22T00:38:19;7.60;85.90
67529;DHT22;54366;51.980;5.856;2023-12-22T00:40:45;7.60;85.90
67529;DHT22;54366;51.980;5.856;2023-12-22T00:43:12;7.50;85.80
67529;DHT22;54366;51.980;5.856;2023-12-22T00:45:38;7.40;86.00
67529;DHT22;54366;51.980;5.856;2023-12-22T00:48:04;7.40;86.00
67529;DHT22;54366;51.980;5.856;2023-12-22T00:50:30;7.40;85.50
67529;DHT22;54366;51.980;5.856;2023-12-22T00:52:57;7.30;85.60
67529;DHT22;54366;51.980;5.856;2023-12-22T00:55:23;7.30;85.60
67529;DHT22;54366;51.980;5.856;2023-12-22T00:57:49;7.30;85.60
67529;DHT22;54366;51.980;5.856;2023-12-22T01:00:16;7.30;85.40
67529;DHT22;54366;51.980;5.856;2023-12-22T01:02:42;7.30;85.40
67529;DHT22;54366;51.980;5.856;2023-12-22T01:05:10;7.30;85.10
67529;DHT22;54366;51.980;5.856;2023-12-22T01:07:36;7.20;84.90
67529;DHT22;54366;51.980;5.856;2023-12-22T01:10:02;7.20;85.10
67529;DHT22;54366;51.980;5.856;2023-12-22T01:12:30;7.20;85.20
67529;DHT22;54366;51.980;5.856;2023-12-22T01:14:57;7.20;85.20
67529;DHT22;54366;51.980;5.856;2023-12-22T01:17:23;7.10;84.70
67529;DHT22;54366;51.980;5.856;2023-12-22T01:19:49;7.10;84.80
67529;DHT22;54366;51.980;5.856;2023-12-22T01:22:17;7.10;84.50
67529;DHT22;54366;51.980;5.856;2023-12-22T01:24:43;7.10;84.50
67529;DHT22;54366;51.980;5.856;2023-12-22T01:27:12;7.10;84.60
67529;DHT22;54366;51.980;5.856;2023-12-22T01:29:38;7.10;84.30
67529;DHT22;54366;51.980;5.856;2023-12-22T01:32:05;7.10;84.50
67529;DHT22;54366;51.980;5.856;2023-12-22T01:34:31;7.10;84.70
67529;DHT22;54366;51.980;5.856;2023-12-22T01:36:58;7.10;84.70
67529;DHT22;54366;51.980;5.856;2023-12-22T01:39:24;7.10;84.70
67529;DHT22;54366;51.980;5.856;2023-12-22T01:41:50;7.10;84.80
67529;DHT22;54366;51.980;5.856;2023-12-22T01:44:16;7.10;84.80
67529;DHT22;54366;51.980;5.856;2023-12-22T01:46:43;7.10;85.00
67529;DHT22;54366;51.980;5.856;2023-12-22T01:49:10;7.20;85.20
67529;DHT22;54366;51.980;5.856;2023-12-22T01:51:38;7.10;85.20
67529;DHT22;54366;51.980;5.856;2023-12-22T01:54:06;7.10;85.40
67529;DHT22;54366;51.980;5.856;2023-12-22T01:56:33;7.10;85.40
67529;DHT22;54366;51.980;5.856;2023-12-22T01:59:00;7.10;85.50
67529;DHT22;54366;51.980;5.856;2023-12-22T02:01:28;7.20;85.60
67529;DHT22;54366;51.980;5.856;2023-12-22T02:03:54;7.10;85.50
67529;DHT22;54366;51.980;5.856;2023-12-22T02:06:22;7.20;85.60
67529;DHT22;54366;51.980;5.856;2023-12-22T02:08:48;7.10;85.60
67529;DHT22;54366;51.980;5.856;2023-12-22T02:11:15;7.20;85.70
67529;DHT22;54366;51.980;5.856;2023-12-22T02:13:45;7.10;85.70
67529;DHT22;54366;51.980;5.856;2023-12-22T02:16:27;7.20;85.80
67529;DHT22;54366;51.980;5.856;2023-12-22T02:18:57;7.20;85.80
67529;DHT22;54366;51.980;5.856;2023-12-22T02:21:25;7.20;85.70
67529;DHT22;54366;51.980;5.856;2023-12-22T02:23:51;7.20;85.70
67529;DHT22;54366;51.980;5.856;2023-12-22T02:26:25;7.20;85.70
67529;DHT22;54366;51.980;5.856;2023-12-22T02:28:55;7.30;85.70
67529;DHT22;54366;51.980;5.856;2023-12-22T02:31:33;7.30;85.70
67529;DHT22;54366;51.980;5.856;2023-12-22T02:34:07;7.30;85.70
67529;DHT22;54366;51.980;5.856;2023-12-22T02:36:39;7.30;85.70
67529;DHT22;54366;51.980;5.856;2023-12-22T02:39:07;7.30;85.70
67529;DHT22;54366;51.980;5.856;2023-12-22T02:41:35;7.30;85.80
67529;DHT22;54366;51.980;5.856;2023-12-22T02:44:02;7.30;85.80
67529;DHT22;54366;51.980;5.856;2023-12-22T02:46:28;7.30;85.80
67529;DHT22;54366;51.980;5.856;2023-12-22T02:48:55;7.30;85.80
67529;DHT22;54366;51.980;5.856;2023-12-22T02:51:21;7.30;85.70
67529;DHT22;54366;51.980;5.856;2023-12-22T02:53:47;7.40;85.90
67529;DHT22;54366;51.980;5.856;2023-12-22T02:56:13;7.40;85.90
67529;DHT22;54366;51.980;5.856;2023-12-22T02:58:40;7.40;85.90
67529;DHT22;54366;51.980;5.856;2023-12-22T03:01:06;7.40;85.80
67529;DHT22;54366;51.980;5.856;2023-12-22T03:03:32;7.40;85.80
67529;DHT22;54366;51.980;5.856;2023-12-22T03:05:59;7.40;85.80
67529;DHT22;54366;51.980;5.856;2023-12-22T03:08:25;7.40;85.80
67529;DHT22;54366;51.980;5.856;2023-12-22T03:10:51;7.40;85.80
67529;DHT22;54366;51.980;5.856;2023-12-22T03:13:18;7.40;85.80
67529;DHT22;54366;51.980;5.856;2023-12-22T03:15:44;7.40;85.80
67529;DHT22;54366;51.980;5.856;2023-12-22T03:18:10;7.40;85.80
67529;DHT22;54366;51.980;5.856;2023-12-22T03:20:37;7.40;85.80
67529;DHT22;54366;51.980;5.856;2023-12-22T03:23:04;7.40;85.70
67529;DHT22;54366;51.980;5.856;2023-12-22T03:25:30;7.40;85.60
67529;DHT22;54366;51.980;5.856;2023-12-22T03:27:57;7.40;84.80
67529;DHT22;54366;51.980;5.856;2023-12-22T03:30:23;7.40;83.70
67529;DHT22;54366;51.980;5.856;2023-12-22T03:32:49;7.40;82.90
67529;DHT22;54366;51.980;5.856;2023-12-22T03:35:15;7.30;82.70
67529;DHT22;54366;51.980;5.856;2023-12-22T03:37:42;7.20;82.40
67529;DHT22;54366;51.980;5.856;2023-12-22T03:40:09;7.10;82.40
67529;DHT22;54366;51.980;5.856;2023-12-22T03:42:35;7.00;82.70
67529;DHT22;54366;51.980;5.856;2023-12-22T03:45:02;6.90;83.10
67529;DHT22;54366;51.980;5.856;2023-12-22T03:47:28;6.80;83.70
67529;DHT22;54366;51.980;5.856;2023-12-22T03:49:55;6.80;83.90
67529;DHT22;54366;51.980;5.856;2023-12-22T03:52:21;6.60;84.40
67529;DHT22;54366;51.980;5.856;2023-12-22T03:54:47;6.60;84.60
67529;DHT22;54366;51.980;5.856;2023-12-22T03:57:13;6.50;84.80
67529;DHT22;54366;51.980;5.856;2023-12-22T03:59:40;6.50;85.10
67529;DHT22;54366;51.980;5.856;2023-12-22T04:02:06;6.40;85.40
67529;DHT22;54366;51.980;5.856;2023-12-22T04:04:32;6.30;85.80
67529;DHT22;54366;51.980;5.856;2023-12-22T04:06:58;6.40;86.40
67529;DHT22;54366;51.980;5.856;2023-12-22T04:09:25;6.40;86.70
67529;DHT22;54366;51.980;5.856;2023-12-22T04:11:51;6.30;87.00
67529;DHT22;54366;51.980;5.856;2023-12-22T04:14:17;6.30;87.60
67529;DHT22;54366;51.980;5.856;2023-12-22T04:16:44;6.30;87.70
67529;DHT22;54366;51.980;5.856;2023-12-22T04:19:10;6.30;88.00
67529;DHT22;54366;51.980;5.856;2023-12-22T04:21:37;6.40;88.00
67529;DHT22;54366;51.980;5.856;2023-12-22T04:24:03;6.40;87.90
67529;DHT22;54366;51.980;5.856;2023-12-22T04:26:30;6.40;87.80
67529;DHT22;54366;51.980;5.856;2023-12-22T04:28:56;6.50;87.80
67529;DHT22;54366;51.980;5.856;2023-12-22T04:31:23;6.60;87.80
67529;DHT22;54366;51.980;5.856;2023-12-22T04:33:49;6.50;88.10
67529;DHT22;54366;51.980;5.856;2023-12-22T04:36:15;6.60;87.50
67529;DHT22;54366;51.980;5.856;2023-12-22T04:38:41;6.60;87.60
67529;DHT22;54366;51.980;5.856;2023-12-22T04:41:08;6.60;87.70
67529;DHT22;54366;51.980;5.856;2023-12-22T04:43:34;6.70;87.80
67529;DHT22;54366;51.980;5.856;2023-12-22T04:46:01;6.70;87.70
67529;DHT22;54366;51.980;5.856;2023-12-22T04:48:27;6.70;87.70
67529;DHT22;54366;51.980;5.856;2023-12-22T04:50:53;6.80;87.70
67529;DHT22;54366;51.980;5.856;2023-12-22T04:53:20;6.90;87.80
67529;DHT22;54366;51.980;5.856;2023-12-22T04:55:46;6.80;87.70
67529;DHT22;54366;51.980;5.856;2023-12-22T04:58:13;6.90;87.60
67529;DHT22;54366;51.980;5.856;2023-12-22T05:00:39;6.90;87.60
67529;DHT22;54366;51.980;5.856;2023-12-22T05:03:05;6.90;88.10
67529;DHT22;54366;51.980;5.856;2023-12-22T05:05:32;7.00;87.50
67529;DHT22;54366;51.980;5.856;2023-12-22T05:07:58;7.00;87.40
67529;DHT22;54366;51.980;5.856;2023-12-22T05:10:25;7.00;87.30
67529;DHT22;54366;51.980;5.856;2023-12-22T05:12:51;7.10;87.30
67529;DHT22;54366;51.980;5.856;2023-12-22T05:15:17;7.10;87.30
67529;DHT22;54366;51.980;5.856;2023-12-22T05:17:43;7.10;87.20
67529;DHT22;54366;51.980;5.856;2023-12-22T05:20:10;7.20;87.30
67529;DHT22;54366;51.980;5.856;2023-12-22T05:22:36;7.20;87.20
67529;DHT22;54366;51.980;5.856;2023-12-22T05:25:03;7.20;87.20
67529;DHT22;54366;51.980;5.856;2023-12-22T05:27:30;7.20;87.20
67529;DHT22;54366;51.980;5.856;2023-12-22T05:29:56;7.20;87.10
67529;DHT22;54366;51.980;5.856;2023-12-22T05:32:27;7.20;87.00
67529;DHT22;54366;51.980;5.856;2023-12-22T05:34:53;7.20;87.00
67529;DHT22;54366;51.980;5.856;2023-12-22T05:37:20;7.20;87.00
67529;DHT22;54366;51.980;5.856;2023-12-22T05:39:46;7.20;87.00
67529;DHT22;54366;51.980;5.856;2023-12-22T05:42:12;7.20;86.90
67529;DHT22;54366;51.980;5.856;2023-12-22T05:44:39;7.30;87.10
67529;DHT22;54366;51.980;5.856;2023-12-22T05:47:05;7.30;87.00
67529;DHT22;54366;51.980;5.856;2023-12-22T05:49:32;7.30;87.10
67529;DHT22;54366;51.980;5.856;2023-12-22T05:51:58;7.30;87.70
67529;DHT22;54366;51.980;5.856;2023-12-22T05:54:24;7.30;87.00
67529;DHT22;54366;51.980;5.856;2023-12-22T05:56:51;7.30;86.90
67529;DHT22;54366;51.980;5.856;2023-12-22T05:59:18;7.30;87.40
67529;DHT22;54366;51.980;5.856;2023-12-22T06:01:44;7.40;86.90
67529;DHT22;54366;51.980;5.856;2023-12-22T06:04:10;7.40;86.80
67529;DHT22;54366;51.980;5.856;2023-12-22T06:06:38;7.40;86.70
67529;DHT22;54366;51.980;5.856;2023-12-22T06:09:05;7.40;86.70
67529;DHT22;54366;51.980;5.856;2023-12-22T06:11:31;7.40;86.70
67529;DHT22;54366;51.980;5.856;2023-12-22T06:13:57;7.50;86.70
67529;DHT22;54366;51.980;5.856;2023-12-22T06:16:24;7.50;86.70
67529;DHT22;54366;51.980;5.856;2023-12-22T06:18:50;7.50;86.60
67529;DHT22;54366;51.980;5.856;2023-12-22T06:21:16;7.50;86.50
67529;DHT22;54366;51.980;5.856;2023-12-22T06:23:42;7.60;86.50
67529;DHT22;54366;51.980;5.856;2023-12-22T06:26:12;7.70;86.50
67529;DHT22;54366;51.980;5.856;2023-12-22T06:28:38;7.70;86.50
67529;DHT22;54366;51.980;5.856;2023-12-22T06:31:06;7.70;86.40
67529;DHT22;54366;51.980;5.856;2023-12-22T06:33:32;7.80;86.40
67529;DHT22;54366;51.980;5.856;2023-12-22T06:35:59;7.80;86.40
67529;DHT22;54366;51.980;5.856;2023-12-22T06:38:25;7.80;86.50
67529;DHT22;54366;51.980;5.856;2023-12-22T06:40:51;7.90;86.60
67529;DHT22;54366;51.980;5.856;2023-12-22T06:43:18;7.90;86.60
67529;DHT22;54366;51.980;5.856;2023-12-22T06:45:44;8.00;86.70
67529;DHT22;54366;51.980;5.856;2023-12-22T06:48:10;8.00;87.20
67529;DHT22;54366;51.980;5.856;2023-12-22T06:50:36;8.00;86.60
67529;DHT22;54366;51.980;5.856;2023-12-22T06:53:05;8.10;87.20
67529;DHT22;54366;51.980;5.856;2023-12-22T06:55:31;8.10;86.60
67529;DHT22;54366;51.980;5.856;2023-12-22T06:57:58;8.20;86.60
67529;DHT22;54366;51.980;5.856;2023-12-22T07:00:24;8.20;86.50
67529;DHT22;54366;51.980;5.856;2023-12-22T07:02:50;8.20;86.40
67529;DHT22;54366;51.980;5.856;2023-12-22T07:05:35;8.30;86.30
67529;DHT22;54366;51.980;5.856;2023-12-22T07:08:02;8.30;86.10
67529;DHT22;54366;51.980;5.856;2023-12-22T07:10:29;8.30;86.10
67529;DHT22;54366;51.980;5.856;2023-12-22T07:12:55;8.30;86.10
67529;DHT22;54366;51.980;5.856;2023-12-22T07:15:21;8.40;86.10
67529;DHT22;54366;51.980;5.856;2023-12-22T07:17:47;8.40;86.00
67529;DHT22;54366;51.980;5.856;2023-12-22T07:20:14;8.50;86.50
67529;DHT22;54366;51.980;5.856;2023-12-22T07:22:40;8.50;85.90
67529;DHT22;54366;51.980;5.856;2023-12-22T07:25:07;8.50;85.90
67529;DHT22;54366;51.980;5.856;2023-12-22T07:27:34;8.60;85.80
67529;DHT22;54366;51.980;5.856;2023-12-22T07:30:01;8.60;85.50
67529;DHT22;54366;51.980;5.856;2023-12-22T07:32:27;8.60;85.50
67529;DHT22;54366;51.980;5.856;2023-12-22T07:34:53;8.70;85.40
67529;DHT22;54366;51.980;5.856;2023-12-22T07:37:19;8.70;85.30
67529;DHT22;54366;51.980;5.856;2023-12-22T07:39:46;8.80;85.20
67529;DHT22;54366;51.980;5.856;2023-12-22T07:42:12;8.80;85.20
67529;DHT22;54366;51.980;5.856;2023-12-22T07:44:38;8.80;85.20
67529;DHT22;54366;51.980;5.856;2023-12-22T07:47:05;8.80;85.10
67529;DHT22;54366;51.980;5.856;2023-12-22T07:49:33;8.80;85.10
67529;DHT22;54366;51.980;5.856;2023-12-22T07:51:59;8.80;85.10
67529;DHT22;54366;51.980;5.856;2023-12-22T07:54:26;8.90;84.90
67529;DHT22;54366;51.980;5.856;2023-12-22T07:56:52;8.90;84.90
67529;DHT22;54366;51.980;5.856;2023-12-22T07:59:18;8.90;84.90
67529;DHT22;54366;51.980;5.856;2023-12-22T08:01:45;8.90;84.80
67529;DHT22;54366;51.980;5.856;2023-12-22T08:04:11;8.90;84.60
67529;DHT22;54366;51.980;5.856;2023-12-22T08:06:37;9.00;84.70
67529;DHT22;54366;51.980;5.856;2023-12-22T08:09:04;9.00;84.50
67529;DHT22;54366;51.980;5.856;2023-12-22T08:11:30;9.00;84.60
67529;DHT22;54366;51.980;5.856;2023-12-22T08:13:57;9.00;84.60
67529;DHT22;54366;51.980;5.856;2023-12-22T08:16:24;9.10;84.80
67529;DHT22;54366;51.980;5.856;2023-12-22T08:18:50;9.10;84.80
67529;DHT22;54366;51.980;5.856;2023-12-22T08:21:17;9.00;85.10
67529;DHT22;54366;51.980;5.856;2023-12-22T08:23:43;9.00;85.40
67529;DHT22;54366;51.980;5.856;2023-12-22T08:26:10;9.00;85.60
67529;DHT22;54366;51.980;5.856;2023-12-22T08:28:36;8.90;85.80
67529;DHT22;54366;51.980;5.856;2023-12-22T08:31:03;8.80;85.90
67529;DHT22;54366;51.980;5.856;2023-12-22T08:33:29;8.80;86.10
67529;DHT22;54366;51.980;5.856;2023-12-22T08:35:57;8.80;86.30
67529;DHT22;54366;51.980;5.856;2023-12-22T08:38:24;8.80;87.00
67529;DHT22;54366;51.980;5.856;2023-12-22T08:40:50;8.70;86.50
67529;DHT22;54366;51.980;5.856;2023-12-22T08:43:17;8.80;86.70
67529;DHT22;54366;51.980;5.856;2023-12-22T08:45:43;8.80;86.90
67529;DHT22;54366;51.980;5.856;2023-12-22T08:48:10;8.70;87.20
67529;DHT22;54366;51.980;5.856;2023-12-22T08:50:37;8.70;87.30
67529;DHT22;54366;51.980;5.856;2023-12-22T08:53:03;8.70;87.40
67529;DHT22;54366;51.980;5.856;2023-12-22T08:55:30;8.80;87.60
67529;DHT22;54366;51.980;5.856;2023-12-22T08:57:56;8.80;87.70
67529;DHT22;54366;51.980;5.856;2023-12-22T09:00:23;8.80;87.90
67529;DHT22;54366;51.980;5.856;2023-12-22T09:02:49;8.90;88.20
67529;DHT22;54366;51.980;5.856;2023-12-22T09:05:16;8.90;88.20
67529;DHT22;54366;51.980;5.856;2023-12-22T09:07:44;8.90;88.30
67529;DHT22;54366;51.980;5.856;2023-12-22T09:10:10;8.90;88.80
67529;DHT22;54366;51.980;5.856;2023-12-22T09:12:38;8.90;88.40
67529;DHT22;54366;51.980;5.856;2023-12-22T09:15:05;8.90;88.30
67529;DHT22;54366;51.980;5.856;2023-12-22T09:17:31;8.90;88.40
67529;DHT22;54366;51.980;5.856;2023-12-22T09:19:59;9.00;88.60
67529;DHT22;54366;51.980;5.856;2023-12-22T09:22:25;9.00;88.60
67529;DHT22;54366;51.980;5.856;2023-12-22T09:24:51;9.00;88.70
67529;DHT22;54366;51.980;5.856;2023-12-22T09:27:18;9.00;88.80
67529;DHT22;54366;51.980;5.856;2023-12-22T09:29:45;9.00;88.90
67529;DHT22;54366;51.980;5.856;2023-12-22T09:32:12;9.00;89.10
67529;DHT22;54366;51.980;5.856;2023-12-22T09:34:39;9.00;89.50
67529;DHT22;54366;51.980;5.856;2023-12-22T09:37:06;9.10;89.50
67529;DHT22;54366;51.980;5.856;2023-12-22T09:39:32;9.10;89.40
67529;DHT22;54366;51.980;5.856;2023-12-22T09:41:59;9.20;89.50
67529;DHT22;54366;51.980;5.856;2023-12-22T09:44:29;9.30;90.00
67529;DHT22;54366;51.980;5.856;2023-12-22T09:46:58;9.20;89.60
67529;DHT22;54366;51.980;5.856;2023-12-22T09:49:25;9.30;89.60
67529;DHT22;54366;51.980;5.856;2023-12-22T09:51:51;9.30;89.70
67529;DHT22;54366;51.980;5.856;2023-12-22T09:54:19;9.30;89.30
67529;DHT22;54366;51.980;5.856;2023-12-22T09:56:46;9.20;88.90
67529;DHT22;54366;51.980;5.856;2023-12-22T09:59:13;9.20;88.90
67529;DHT22;54366;51.980;5.856;2023-12-22T10:01:44;9.20;88.00
67529;DHT22;54366;51.980;5.856;2023-12-22T10:04:13;9.10;88.20
67529;DHT22;54366;51.980;5.856;2023-12-22T10:06:39;9.00;87.90
67529;DHT22;54366;51.980;5.856;2023-12-22T10:09:05;9.00;88.00
67529;DHT22;54366;51.980;5.856;2023-12-22T10:11:36;9.00;88.00
67529;DHT22;54366;51.980;5.856;2023-12-22T10:14:04;9.00;88.20
67529;DHT22;54366;51.980;5.856;2023-12-22T10:16:31;9.00;88.30
67529;DHT22;54366;51.980;5.856;2023-12-22T10:18:59;9.00;88.40
67529;DHT22;54366;51.980;5.856;2023-12-22T10:21:25;9.00;88.40
67529;DHT22;54366;51.980;5.856;2023-12-22T10:23:52;9.00;88.60
67529;DHT22;54366;51.980;5.856;2023-12-22T10:26:18;8.90;88.80
67529;DHT22;54366;51.980;5.856;2023-12-22T10:28:47;9.00;89.10
67529;DHT22;54366;51.980;5.856;2023-12-22T10:31:13;9.00;89.40
67529;DHT22;54366;51.980;5.856;2023-12-22T10:33:40;9.10;89.50
67529;DHT22;54366;51.980;5.856;2023-12-22T10:36:07;9.10;90.00
67529;DHT22;54366;51.980;5.856;2023-12-22T10:38:34;9.20;90.10
67529;DHT22;54366;51.980;5.856;2023-12-22T10:41:03;9.30;90.30
67529;DHT22;54366;51.980;5.856;2023-12-22T10:43:37;9.30;90.30
67529;DHT22;54366;51.980;5.856;2023-12-22T10:46:03;9.40;90.40
67529;DHT22;54366;51.980;5.856;2023-12-22T10:48:30;9.40;90.40
67529;DHT22;54366;51.980;5.856;2023-12-22T10:50:57;9.50;90.50
67529;DHT22;54366;51.980;5.856;2023-12-22T10:53:23;9.50;90.50
67529;DHT22;54366;51.980;5.856;2023-12-22T10:55:50;9.60;90.50
67529;DHT22;54366;51.980;5.856;2023-12-22T10:58:17;9.60;90.60
67529;DHT22;54366;51.980;5.856;2023-12-22T11:00:48;9.60;90.70
67529;DHT22;54366;51.980;5.856;2023-12-22T11:03:18;9.70;90.80
67529;DHT22;54366;51.980;5.856;2023-12-22T11:05:48;9.70;90.90
67529;DHT22;54366;51.980;5.856;2023-12-22T11:08:15;9.70;90.80
67529;DHT22;54366;51.980;5.856;2023-12-22T11:10:44;9.70;90.80
67529;DHT22;54366;51.980;5.856;2023-12-22T11:13:14;9.80;90.80
67529;DHT22;54366;51.980;5.856;2023-12-22T11:15:43;9.80;90.90
67529;DHT22;54366;51.980;5.856;2023-12-22T11:18:10;9.80;90.90
67529;DHT22;54366;51.980;5.856;2023-12-22T11:20:37;9.90;90.80
67529;DHT22;54366;51.980;5.856;2023-12-22T11:23:04;9.90;90.70
67529;DHT22;54366;51.980;5.856;2023-12-22T11:25:31;9.90;90.60
67529;DHT22;54366;51.980;5.856;2023-12-22T11:27:59;10.00;90.50
67529;DHT22;54366;51.980;5.856;2023-12-22T11:30:27;10.00;90.50
67529;DHT22;54366;51.980;5.856;2023-12-22T11:32:54;10.00;90.40
67529;DHT22;54366;51.980;5.856;2023-12-22T11:35:23;10.10;90.40
67529;DHT22;54366;51.980;5.856;2023-12-22T11:37:50;10.10;90.40
67529;DHT22;54366;51.980;5.856;2023-12-22T11:40:19;10.20;90.40
67529;DHT22;54366;51.980;5.856;2023-12-22T11:42:48;10.20;90.30
67529;DHT22;54366;51.980;5.856;2023-12-22T11:45:15;10.20;90.10
67529;DHT22;54366;51.980;5.856;2023-12-22T11:47:43;10.20;89.90
67529;DHT22;54366;51.980;5.856;2023-12-22T11:50:10;10.20;89.80
67529;DHT22;54366;51.980;5.856;2023-12-22T11:52:39;10.30;89.70
67529;DHT22;54366;51.980;5.856;2023-12-22T11:55:06;10.30;90.10
67529;DHT22;54366;51.980;5.856;2023-12-22T11:57:34;10.30;89.60
67529;DHT22;54366;51.980;5.856;2023-12-22T12:00:09;10.30;89.50
67529;DHT22;54366;51.980;5.856;2023-12-22T12:02:58;10.30;89.60
67529;DHT22;54366;51.980;5.856;2023-12-22T12:05:24;10.30;89.60
67529;DHT22;54366;51.980;5.856;2023-12-22T12:07:50;10.30;89.60
67529;DHT22;54366;51.980;5.856;2023-12-22T12:10:52;10.30;89.60
67529;DHT22;54366;51.980;5.856;2023-12-22T12:13:24;10.30;89.10
67529;DHT22;54366;51.980;5.856;2023-12-22T12:15:53;10.40;89.00
67529;DHT22;54366;51.980;5.856;2023-12-22T12:18:24;10.30;88.70
67529;DHT22;54366;51.980;5.856;2023-12-22T12:20:50;10.40;88.80
67529;DHT22;54366;51.980;5.856;2023-12-22T12:23:17;10.40;88.50
67529;DHT22;54366;51.980;5.856;2023-12-22T12:25:43;10.40;88.70
67529;DHT22;54366;51.980;5.856;2023-12-22T12:28:10;10.40;87.90
67529;DHT22;54366;51.980;5.856;2023-12-22T12:30:37;10.40;87.80
67529;DHT22;54366;51.980;5.856;2023-12-22T12:33:11;10.40;88.00
67529;DHT22;54366;51.980;5.856;2023-12-22T12:35:38;10.40;88.30
67529;DHT22;54366;51.980;5.856;2023-12-22T12:38:05;10.40;88.50
67529;DHT22;54366;51.980;5.856;2023-12-22T12:40:32;10.40;88.70
67529;DHT22;54366;51.980;5.856;2023-12-22T12:43:02;10.40;88.90
67529;DHT22;54366;51.980;5.856;2023-12-22T12:45:28;10.40;89.00
67529;DHT22;54366;51.980;5.856;2023-12-22T12:47:59;10.40;88.90
67529;DHT22;54366;51.980;5.856;2023-12-22T12:50:26;10.40;88.90
67529;DHT22;54366;51.980;5.856;2023-12-22T12:52:55;10.40;88.30
67529;DHT22;54366;51.980;5.856;2023-12-22T12:55:23;10.50;88.50
67529;DHT22;54366;51.980;5.856;2023-12-22T12:57:50;10.50;88.50
67529;DHT22;54366;51.980;5.856;2023-12-22T13:00:24;10.50;88.30
67529;DHT22;54366;51.980;5.856;2023-12-22T13:02:53;10.50;87.70
67529;DHT22;54366;51.980;5.856;2023-12-22T13:05:24;10.60;87.00
67529;DHT22;54366;51.980;5.856;2023-12-22T13:07:51;10.60;86.60
67529;DHT22;54366;51.980;5.856;2023-12-22T13:10:24;10.70;86.60
67529;DHT22;54366;51.980;5.856;2023-12-22T13:12:51;10.70;86.70
67529;DHT22;54366;51.980;5.856;2023-12-22T13:15:20;10.70;85.20
67529;DHT22;54366;51.980;5.856;2023-12-22T13:17:50;10.80;85.60
67529;DHT22;54366;51.980;5.856;2023-12-22T13:20:16;10.80;85.20
67529;DHT22;54366;51.980;5.856;2023-12-22T13:22:44;10.80;85.40
67529;DHT22;54366;51.980;5.856;2023-12-22T13:25:10;10.90;85.40
67529;DHT22;54366;51.980;5.856;2023-12-22T13:27:50;10.80;85.70
67529;DHT22;54366;51.980;5.856;2023-12-22T13:30:36;10.80;86.20
67529;DHT22;54366;51.980;5.856;2023-12-22T13:33:04;10.80;86.40
67529;DHT22;54366;51.980;5.856;2023-12-22T13:35:31;10.70;86.30
67529;DHT22;54366;51.980;5.856;2023-12-22T13:37:58;10.80;86.20
67529;DHT22;54366;51.980;5.856;2023-12-22T13:40:24;10.80;86.10
67529;DHT22;54366;51.980;5.856;2023-12-22T13:42:56;10.80;85.80
67529;DHT22;54366;51.980;5.856;2023-12-22T13:45:26;10.80;85.50
67529;DHT22;54366;51.980;5.856;2023-12-22T13:47:53;10.80;85.10
67529;DHT22;54366;51.980;5.856;2023-12-22T13:50:20;10.80;85.30
67529;DHT22;54366;51.980;5.856;2023-12-22T13:52:49;10.80;85.30
67529;DHT22;54366;51.980;5.856;2023-12-22T13:55:18;10.80;85.50
67529;DHT22;54366;51.980;5.856;2023-12-22T13:57:45;10.80;85.10
67529;DHT22;54366;51.980;5.856;2023-12-22T14:00:41;10.80;85.30
67529;DHT22;54366;51.980;5.856;2023-12-22T14:03:10;10.80;85.10
67529;DHT22;54366;51.980;5.856;2023-12-22T14:05:37;10.80;84.90
67529;DHT22;54366;51.980;5.856;2023-12-22T14:08:06;10.80;84.90
67529;DHT22;54366;51.980;5.856;2023-12-22T14:10:32;10.80;84.90
67529;DHT22;54366;51.980;5.856;2023-12-22T14:12:58;10.90;84.50
67529;DHT22;54366;51.980;5.856;2023-12-22T14:15:25;10.80;85.10
67529;DHT22;54366;51.980;5.856;2023-12-22T14:17:55;10.80;85.70
67529;DHT22;54366;51.980;5.856;2023-12-22T14:20:21;10.70;86.30
67529;DHT22;54366;51.980;5.856;2023-12-22T14:22:48;10.70;86.60
67529;DHT22;54366;51.980;5.856;2023-12-22T14:25:14;10.70;87.00
67529;DHT22;54366;51.980;5.856;2023-12-22T14:27:40;10.60;87.30
67529;DHT22;54366;51.980;5.856;2023-12-22T14:30:07;10.60;87.70
67529;DHT22;54366;51.980;5.856;2023-12-22T14:32:33;10.60;88.10
67529;DHT22;54366;51.980;5.856;2023-12-22T14:34:59;10.50;88.90
67529;DHT22;54366;51.980;5.856;2023-12-22T14:37:26;10.50;88.40
67529;DHT22;54366;51.980;5.856;2023-12-22T14:39:53;10.50;88.60
67529;DHT22;54366;51.980;5.856;2023-12-22T14:42:20;10.40;88.80
67529;DHT22;54366;51.980;5.856;2023-12-22T14:44:47;10.40;89.00
67529;DHT22;54366;51.980;5.856;2023-12-22T14:47:13;10.40;89.20
67529;DHT22;54366;51.980;5.856;2023-12-22T14:49:39;10.40;89.30
67529;DHT22;54366;51.980;5.856;2023-12-22T14:52:06;10.40;89.30
67529;DHT22;54366;51.980;5.856;2023-12-22T14:54:32;10.50;89.20
67529;DHT22;54366;51.980;5.856;2023-12-22T14:56:58;10.40;89.00
67529;DHT22;54366;51.980;5.856;2023-12-22T14:59:24;10.50;89.00
67529;DHT22;54366;51.980;5.856;2023-12-22T15:01:51;10.50;88.60
67529;DHT22;54366;51.980;5.856;2023-12-22T15:04:17;10.50;88.60
67529;DHT22;54366;51.980;5.856;2023-12-22T15:06:45;10.50;88.80
67529;DHT22;54366;51.980;5.856;2023-12-22T15:09:12;10.50;88.70
67529;DHT22;54366;51.980;5.856;2023-12-22T15:11:42;10.50;88.70
67529;DHT22;54366;51.980;5.856;2023-12-22T15:14:09;10.50;88.60
67529;DHT22;54366;51.980;5.856;2023-12-22T15:16:40;10.50;88.50
67529;DHT22;54366;51.980;5.856;2023-12-22T15:19:07;10.50;88.60
67529;DHT22;54366;51.980;5.856;2023-12-22T15:21:33;10.50;88.80
67529;DHT22;54366;51.980;5.856;2023-12-22T15:23:59;10.50;88.80
67529;DHT22;54366;51.980;5.856;2023-12-22T15:26:26;10.50;89.00
67529;DHT22;54366;51.980;5.856;2023-12-22T15:28:53;10.50;89.20
67529;DHT22;54366;51.980;5.856;2023-12-22T15:31:19;10.50;89.20
67529;DHT22;54366;51.980;5.856;2023-12-22T15:33:45;10.50;89.30
67529;DHT22;54366;51.980;5.856;2023-12-22T15:36:18;10.40;89.40
67529;DHT22;54366;51.980;5.856;2023-12-22T15:38:48;10.50;89.50
67529;DHT22;54366;51.980;5.856;2023-12-22T15:41:14;10.50;89.60
67529;DHT22;54366;51.980;5.856;2023-12-22T15:43:42;10.40;89.50